Time;durP1;ratioP1;P1;durP2;ratioP2;P2;SDS_P1;SDS_P2;PMS_P1;PMS_P2;Temp;Humidity;BMP_temperature;BMP_pressure;BME280_temperature;BME280_humidity;BME280_pressure;Samples;Min_cycle;Max_cycle;Signal;HPM_P1;HPM_P2
2022/12/17 14:50:23;;;;;;;72.77;32.77;;;;;;;0.30;72.13;100839.20;2505773;77;26066;-78
2022/12/17 14:53:53;;;;;;;68.12;33.25;;;;;;;0.28;72.15;100842.06;2470403;79;25743;-79
2022/12/17 14:57:26;;;;;;;74.77;33.02;;;;;;;0.37;72.18;100847.86;2456843;78;25779;-79
2022/12/17 15:01:08;;;;;;;67.17;32.23;;;;;;;0.61;72.11;100855.52;2427439;80;25719;-79
2022/12/17 15:04:44;;;;;;;50.90;25.72;;;;;;;0.88;71.77;100845.02;2366383;83;25238;-82
2022/12/17 15:08:17;;;;;;;39.67;20.97;;;;;;;0.83;69.63;100847.24;2369970;83;25654;-80
2022/12/17 15:11:47;;;;;;;40.80;21.05;;;;;;;0.68;68.90;100847.47;2345043;81;26329;-78
2022/12/17 15:15:15;;;;;;;48.20;22.05;;;;;;;0.63;69.08;100863.80;2365725;81;25479;-82
2022/12/17 15:18:43;;;;;;;42.53;20.12;;;;;;;0.70;69.09;100868.98;2335802;81;25817;-78
2022/12/17 15:22:08;;;;;;;41.28;22.22;;;;;;;0.82;68.90;100879.23;2328775;83;25488;-80
2022/12/17 15:25:33;;;;;;;40.92;21.25;;;;;;;0.91;68.61;100882.42;2320378;81;25825;-80
2022/12/17 15:29:02;;;;;;;44.95;21.80;;;;;;;0.97;68.24;100884.53;2336668;83;25779;-80
2022/12/17 15:32:26;;;;;;;44.15;22.32;;;;;;;1.03;67.98;100882.41;2342346;82;25642;-78
2022/12/17 15:35:52;;;;;;;41.80;22.00;;;;;;;1.06;67.67;100887.75;2346686;82;25874;-79
2022/12/17 15:39:20;;;;;;;39.55;21.68;;;;;;;1.08;67.45;100888.36;2353292;81;26391;-80
2022/12/17 15:43:10;;;;;;;40.78;21.77;;;;;;;1.10;67.28;100891.91;2431656;78;25591;-80
2022/12/17 15:46:34;;;;;;;56.68;27.02;;;;;;;1.39;67.43;100902.03;2452058;79;25811;-79
2022/12/17 15:50:10;;;;;;;90.30;38.35;;;;;;;1.76;67.23;100910.95;2462329;78;25758;-79
2022/12/17 15:53:33;;;;;;;106.75;47.23;;;;;;;2.04;67.06;100906.84;2425892;79;26388;-79
2022/12/17 15:57:08;;;;;;;124.47;52.50;;;;;;;2.30;66.93;100919.25;2396889;81;26318;-81
2022/12/17 16:00:33;;;;;;;140.65;63.25;;;;;;;2.48;66.85;100916.56;2387314;81;25713;-79
2022/12/17 16:04:05;;;;;;;186.85;79.03;;;;;;;2.67;66.73;100917.76;2425042;81;25796;-79
2022/12/17 16:07:29;;;;;;;177.65;74.00;;;;;;;2.83;66.73;100925.63;2418940;80;25632;-78
2022/12/17 16:10:58;;;;;;;221.72;92.22;;;;;;;2.97;66.51;100935.14;2427433;80;26407;-79
2022/12/17 16:14:24;;;;;;;219.62;98.72;;;;;;;3.08;66.46;100931.94;2425014;80;25677;-79
2022/12/17 16:17:55;;;;;;;253.10;114.20;;;;;;;3.20;66.39;100933.97;2427157;80;25705;-79
2022/12/17 16:21:32;;;;;;;203.70;93.42;;;;;;;3.29;66.34;100934.55;2428899;80;26310;-79
2022/12/17 16:24:58;;;;;;;183.68;80.22;;;;;;;3.32;65.75;100932.56;2425555;79;25606;-79
2022/12/17 16:28:21;;;;;;;156.50;68.75;;;;;;;3.17;65.25;100936.75;2421536;80;25790;-78
2022/12/17 16:31:53;;;;;;;126.38;55.88;;;;;;;3.01;64.85;100934.53;2424747;80;25612;-79
2022/12/17 16:35:22;;;;;;;118.13;50.58;;;;;;;2.88;64.60;100933.66;2384581;81;25739;-79
2022/12/17 16:38:52;;;;;;;90.47;44.67;;;;;;;2.73;64.35;100930.59;2391307;80;26309;-78
2022/12/17 16:42:18;;;;;;;84.03;38.48;;;;;;;2.62;64.17;100944.88;2297156;83;25968;-76
2022/12/17 16:45:52;;;;;;;63.52;31.90;;;;;;;2.52;64.02;100949.42;2274375;84;26340;-80
2022/12/17 16:49:19;;;;;;;62.23;30.32;;;;;;;2.43;63.84;100968.14;2290888;84;25692;-77
2022/12/17 16:52:44;;;;;;;;;;;;;;;2.35;63.66;100974.05;2279533;84;25849;-78
2022/12/17 16:56:26;;;;;;;60.38;27.82;;;;;;;2.35;63.46;100980.48;2280043;85;25930;-79
2022/12/17 16:59:52;;;;;;;50.15;26.68;;;;;;;2.31;63.31;100982.36;2278949;85;25667;-79
2022/12/17 17:03:21;;;;;;;50.30;24.95;;;;;;;2.27;63.31;100982.96;2269869;84;25673;-79
2022/12/17 17:06:53;;;;;;;45.30;23.87;;;;;;;2.41;63.35;100989.02;2268184;85;25708;-80
2022/12/17 17:10:20;;;;;;;45.52;22.52;;;;;;;2.58;63.33;100988.83;2264883;85;25871;-79
2022/12/17 17:13:53;;;;;;;40.95;22.85;;;;;;;2.72;63.17;100995.76;2277731;85;26226;-80
2022/12/17 17:17:18;;;;;;;39.85;20.65;;;;;;;2.84;63.04;100996.96;2217232;87;26557;-80
2022/12/17 17:20:50;;;;;;;39.63;21.05;;;;;;;2.93;62.86;101009.12;2214399;88;26444;-81
2022/12/17 17:24:19;;;;;;;36.83;20.37;;;;;;;2.99;62.70;101017.24;2199277;88;26072;-81
2022/12/17 17:27:54;;;;;;;37.70;21.05;;;;;;;3.06;62.54;101021.98;2207364;87;25691;-79
2022/12/17 17:31:20;;;;;;;35.20;19.40;;;;;;;3.11;62.35;101026.17;2206287;88;26756;-79
2022/12/17 17:34:55;;;;;;;38.83;19.70;;;;;;;3.16;62.23;101021.30;2171779;88;25709;-79
2022/12/17 17:38:41;;;;;;;31.07;18.30;;;;;;;3.19;62.10;101023.66;2236235;86;25733;-77
2022/12/17 17:42:08;;;;;;;32.00;18.60;;;;;;;3.19;61.93;101017.22;2273754;84;25736;-77
2022/12/17 17:45:29;;;;;;;26.90;16.45;;;;;;;3.25;61.79;101030.50;2251056;84;25729;-79
2022/12/17 17:48:52;;;;;;;32.50;17.97;;;;;;;3.26;61.68;101027.12;2280146;84;25809;-78
2022/12/17 17:52:18;;;;;;;30.97;16.73;;;;;;;3.27;61.51;101031.50;2205776;87;25894;-78
2022/12/17 17:55:46;;;;;;;23.00;15.80;;;;;;;3.28;61.41;101041.01;2224369;87;26224;-79
2022/12/17 17:59:22;;;;;;;25.82;16.67;;;;;;;3.30;61.26;101043.66;2224812;87;25892;-78
2022/12/17 18:02:57;;;;;;;24.35;16.20;;;;;;;3.30;61.16;101036.81;2235616;86;25838;-78
2022/12/17 18:06:35;;;;;;;30.17;15.32;;;;;;;3.31;61.06;101046.36;2246689;86;25918;-79
2022/12/17 18:10:06;;;;;;;22.80;14.43;;;;;;;3.33;60.96;101058.44;2239438;85;25615;-78
2022/12/17 18:17:37;;;;;;;21.97;13.72;;;;;;;3.34;60.79;101056.34;2131267;91;25985;-79
2022/12/17 18:21:13;;;;;;;21.97;14.18;;;;;;;3.33;60.68;101050.30;2168905;88;25895;-79
2022/12/17 18:24:51;;;;;;;21.07;13.03;;;;;;;3.34;60.59;101071.80;2187900;89;25920;-77
2022/12/17 18:28:16;;;;;;;19.82;12.95;;;;;;;3.35;60.52;101077.08;2192789;89;25683;-80
2022/12/17 18:31:45;;;;;;;23.42;13.15;;;;;;;3.36;60.47;101082.72;2188565;88;25868;-79
2022/12/17 18:35:12;;;;;;;22.58;12.53;;;;;;;3.37;60.40;101093.91;2176938;88;26519;-79
2022/12/17 18:38:45;;;;;;;15.83;11.70;;;;;;;3.36;60.33;101087.87;2178826;88;26366;-79
2022/12/17 18:45:56;;;;;;;20.32;12.45;;;;;;;3.37;60.23;101099.95;2189840;87;25703;-79
2022/12/17 18:49:25;;;;;;;19.85;12.63;;;;;;;3.38;60.19;101109.89;2126367;90;25948;-79
2022/12/17 18:53:05;;;;;;;19.07;11.28;;;;;;;3.39;60.13;101110.38;2193481;88;25747;-80
2022/12/17 18:56:37;;;;;;;17.25;12.50;;;;;;;3.40;60.10;101118.59;2192040;88;25665;-78
2022/12/17 19:00:09;;;;;;;15.93;11.68;;;;;;;3.41;60.05;101119.08;2191193;88;25731;-78
2022/12/17 19:03:38;;;;;;;19.32;11.88;;;;;;;3.42;60.03;101127.33;2153003;88;26041;-80
2022/12/17 19:07:06;;;;;;;15.88;11.80;;;;;;;3.43;59.94;101132.97;2163518;88;25760;-79
2022/12/17 19:10:46;;;;;;;19.12;12.80;;;;;;;3.43;59.91;101134.27;2179288;88;26038;-79
2022/12/17 19:14:22;;;;;;;19.05;11.55;;;;;;;3.43;59.89;101136.44;2158175;89;25854;-80
2022/12/17 19:17:54;;;;;;;22.13;12.90;;;;;;;3.44;59.86;101133.45;2216764;87;25869;-81
2022/12/17 19:21:22;;;;;;;81.28;39.18;;;;;;;3.45;59.83;101136.55;2248486;86;25767;-79
2022/12/17 19:24:46;;;;;;;;;;;;;;;3.51;61.05;101140.78;2259837;85;26271;-80
2022/12/17 19:28:11;;;;;;;55.20;28.00;;;;;;;3.61;60.78;101144.84;2258673;86;25762;-78
2022/12/17 19:31:56;;;;;;;46.95;26.33;;;;;;;3.66;60.67;101141.77;2258992;85;26465;-79
2022/12/17 19:35:27;;;;;;;46.70;25.32;;;;;;;3.71;60.53;101158.45;2259828;85;25844;-78
2022/12/17 19:38:58;;;;;;;49.25;25.75;;;;;;;3.75;60.42;101158.24;2189112;89;25922;-80
2022/12/17 19:42:28;;;;;;;47.75;25.50;;;;;;;3.76;60.35;101147.12;2164419;89;26044;-80
2022/12/17 19:46:05;;;;;;;280.35;129.82;;;;;;;3.79;60.30;101153.36;2171651;87;25853;-80
2022/12/17 19:49:34;;;;;;;217.95;106.43;;;;;;;4.06;67.31;101157.58;2187743;86;25803;-79
2022/12/17 19:53:17;;;;;;;173.32;85.97;;;;;;;4.71;66.78;101169.31;2229025;84;25750;-79
2022/12/17 19:56:54;;;;;;;159.30;81.78;;;;;;;4.73;65.05;101167.73;2258519;84;26167;-79
2022/12/17 20:00:17;;;;;;;141.20;73.42;;;;;;;4.67;64.54;101172.52;2263212;84;25838;-79
2022/12/17 20:03:46;;;;;;;128.95;64.85;;;;;;;4.66;64.21;101177.61;2251174;85;25884;-79
2022/12/17 20:07:13;;;;;;;132.18;66.70;;;;;;;4.63;63.98;101181.30;2282769;84;25731;-80
2022/12/17 20:10:42;;;;;;;129.80;65.65;;;;;;;4.62;63.73;101192.00;2291442;84;25715;-78
2022/12/17 20:14:25;;;;;;;116.53;59.30;;;;;;;4.61;63.55;101190.23;2295755;84;25824;-78
2022/12/17 20:17:45;;;;;;;108.20;56.15;;;;;;;4.61;63.35;101189.34;2202692;87;25839;-78
2022/12/17 20:21:09;;;;;;;103.97;52.95;;;;;;;4.60;63.07;101189.75;2215993;87;25797;-80
2022/12/17 20:24:38;;;;;;;96.20;51.53;;;;;;;4.58;62.91;101189.16;2232412;87;25417;-79
2022/12/17 20:28:12;;;;;;;105.55;50.90;;;;;;;4.56;62.70;101195.94;2184324;89;25542;-79
2022/12/17 20:31:34;;;;;;;82.60;46.35;;;;;;;4.52;62.52;101201.28;2221868;85;26010;-82
2022/12/17 20:35:03;;;;;;;78.45;46.90;;;;;;;4.50;62.38;101201.61;2258184;83;25871;-79
2022/12/17 20:38:29;;;;;;;85.30;46.25;;;;;;;4.49;62.22;101213.63;2284492;83;25599;-78
2022/12/17 20:41:56;;;;;;;76.57;41.95;;;;;;;4.47;62.11;101213.03;2318265;83;25724;-80
2022/12/17 20:45:22;;;;;;;72.92;39.35;;;;;;;4.44;61.96;101211.15;2315607;83;25808;-79
2022/12/17 20:48:50;;;;;;;69.40;39.05;;;;;;;4.44;61.87;101217.61;2332593;83;25832;-80
2022/12/17 20:52:20;;;;;;;57.70;35.80;;;;;;;4.42;61.72;101228.62;2356317;81;26390;-80
2022/12/17 20:55:49;;;;;;;58.25;32.73;;;;;;;4.39;61.63;101229.77;2256493;85;25806;-79
2022/12/17 20:59:21;;;;;;;59.88;35.50;;;;;;;4.38;61.49;101243.03;2157506;90;25965;-79
2022/12/17 21:02:44;;;;;;;57.62;32.95;;;;;;;4.35;61.37;101238.97;2171341;89;26204;-80
2022/12/17 21:06:23;;;;;;;53.78;30.60;;;;;;;4.34;61.31;101252.69;2160550;89;25786;-78
2022/12/17 21:09:52;;;;;;;54.77;31.95;;;;;;;4.33;61.23;101256.48;2193769;88;26551;-79
2022/12/17 21:13:33;;;;;;;50.40;30.25;;;;;;;4.32;61.13;101272.73;2181113;88;25788;-79
2022/12/17 21:17:05;;;;;;;45.73;26.10;;;;;;;4.30;61.03;101265.31;2164828;88;25951;-79
2022/12/17 21:20:29;;;;;;;39.18;25.02;;;;;;;4.29;60.98;101272.17;2170679;89;26116;-81
2022/12/17 21:24:00;;;;;;;38.98;24.82;;;;;;;4.28;60.89;101272.06;2150186;89;26164;-82
2022/12/17 21:27:27;;;;;;;40.88;24.92;;;;;;;4.25;60.82;101263.72;2139236;89;25888;-87
2022/12/17 21:31:01;;;;;;;39.75;25.27;;;;;;;4.25;60.81;101276.63;2153368;89;25693;-79
2022/12/17 21:34:31;;;;;;;40.78;24.85;;;;;;;4.24;60.73;101287.34;2123704;88;25909;-79
